Time;durP1;ratioP1;P1;durP2;ratioP2;P2;SDS_P1;SDS_P2;PMS_P1;PMS_P2;Temp;Humidity;BMP_temperature;BMP_pressure;BME280_temperature;BME280_humidity;BME280_pressure;Samples;Min_cycle;Max_cycle;Signal;HPM_P1;HPM_P2
2023/02/08 00:00:25;;;;;;;;;;;;;;;-142.75;100.00;80548.59;4992243;28;20361;-66
2023/02/08 00:02:50;;;;;;;;;;;;;;;-142.75;100.00;80552.53;4992376;28;20392;-66
2023/02/08 00:05:16;;;;;;;;;;;;;;;-142.75;100.00;80528.88;4990770;28;20293;-65
2023/02/08 00:07:42;;;;;;;;;;;;;;;-142.75;100.00;80524.94;4972824;28;19968;-66
2023/02/08 00:10:09;;;;;;;;;;;;;;;-142.75;100.00;80542.69;4990336;28;19928;-66
2023/02/08 00:12:34;;;;;;;;;;;;;;;-142.75;100.00;80560.41;4992285;28;19968;-66
2023/02/08 00:14:59;;;;;;;;;;;;;;;-142.75;100.00;80560.41;4975714;28;19914;-66
2023/02/08 00:17:25;;;;;;;;;;;;;;;-142.75;100.00;80532.81;4989660;28;19941;-66
2023/02/08 00:19:51;;;;;;;;;;;;;;;-142.75;100.00;80542.69;4992084;28;20001;-65
2023/02/08 00:22:16;;;;;;;;;;;;;;;-142.75;100.00;80560.41;4991929;28;19921;-64
2023/02/08 00:24:41;;;;;;;;;;;;;;;-142.75;100.00;80564.34;4991886;28;19999;-66
2023/02/08 00:27:06;;;;;;;;;;;;;;;-142.75;100.00;80524.94;4991881;28;19925;-67
2023/02/08 00:29:32;;;;;;;;;;;;;;;-142.75;100.00;80499.31;4992002;28;19913;-66
2023/02/08 00:31:57;;;;;;;;;;;;;;;-142.75;100.00;80489.47;4987534;28;19918;-66
2023/02/08 00:34:22;;;;;;;;;;;;;;;-142.75;100.00;80471.75;4990510;28;19920;-63
2023/02/08 00:36:48;;;;;;;;;;;;;;;-142.75;100.00;80450.06;4991774;28;20403;-66
2023/02/08 00:39:13;;;;;;;;;;;;;;;-142.75;100.00;80459.91;4990043;28;19913;-66
2023/02/08 00:41:38;;;;;;;;;;;;;;;-142.75;100.00;80465.81;4972398;28;20373;-66
2023/02/08 00:44:03;;;;;;;;;;;;;;;-142.75;100.00;80481.59;4988778;28;20388;-67
2023/02/08 00:46:29;;;;;;;;;;;;;;;-142.75;100.00;80509.19;4991643;28;19913;-66
2023/02/08 00:48:54;;;;;;;;;;;;;;;-142.75;100.00;80515.09;4991744;28;19920;-66
2023/02/08 00:51:19;;;;;;;;;;;;;;;-142.75;100.00;80522.97;4990373;28;19913;-65
2023/02/08 00:53:45;;;;;;;;;;;;;;;-142.75;100.00;80576.19;4991538;28;19920;-66
2023/02/08 00:56:11;;;;;;;;;;;;;;;-142.75;100.00;80572.22;4991542;28;19913;-65
2023/02/08 00:58:36;;;;;;;;;;;;;;;-142.75;100.00;80582.09;4991784;28;19921;-67
2023/02/08 01:01:02;;;;;;;;;;;;;;;-142.75;100.00;80584.06;4991822;28;19917;-66
2023/02/08 01:03:27;;;;;;;;;;;;;;;-142.75;100.00;80588.00;4994388;28;19913;-66
2023/02/08 01:05:53;;;;;;;;;;;;;;;-142.75;100.00;80595.88;4995294;28;20275;-66
2023/02/08 01:08:20;;;;;;;;;;;;;;;-142.75;100.00;80601.78;4995630;28;20012;-66
2023/02/08 01:10:45;;;;;;;;;;;;;;;-142.75;100.00;80584.06;4995465;28;20289;-66
2023/02/08 01:13:10;;;;;;;;;;;;;;;-142.75;100.00;80544.66;4995503;28;19976;-65
2023/02/08 01:15:36;;;;;;;;;;;;;;;-142.75;100.00;80546.63;4993816;28;19914;-66
2023/02/08 01:18:01;;;;;;;;;;;;;;;-142.75;100.00;80536.75;4986831;28;19914;-66
2023/02/08 01:20:26;;;;;;;;;;;;;;;-142.75;100.00;80517.06;4994535;28;20004;-66
2023/02/08 01:22:51;;;;;;;;;;;;;;;-142.75;100.00;80503.28;4995243;28;20274;-66
2023/02/08 01:25:16;;;;;;;;;;;;;;;-142.75;100.00;80521.00;4995048;28;20028;-66
2023/02/08 01:27:42;;;;;;;;;;;;;;;-142.75;100.00;80521.00;4995211;28;19949;-66
2023/02/08 01:30:08;;;;;;;;;;;;;;;-142.75;100.00;80507.22;4993918;28;20541;-66
2023/02/08 01:32:33;;;;;;;;;;;;;;;-142.75;100.00;80505.25;4995128;28;20270;-65
2023/02/08 01:34:58;;;;;;;;;;;;;;;-142.75;100.00;80513.13;4993500;28;19937;-68
2023/02/08 01:37:23;;;;;;;;;;;;;;;-142.75;100.00;80497.34;4995090;28;19913;-66
2023/02/08 01:39:49;;;;;;;;;;;;;;;-142.75;100.00;80524.94;4994809;28;19917;-66
2023/02/08 01:42:15;;;;;;;;;;;;;;;-142.75;100.00;80556.47;4995001;28;20427;-66
2023/02/08 01:44:59;;;;;;;;;;;;;;;-142.75;100.00;80578.13;4994629;28;19913;-65
2023/02/08 01:47:24;;;;;;;;;;;;;;;-142.75;100.00;80595.88;4993747;28;20004;-66
2023/02/08 01:49:50;;;;;;;;;;;;;;;-142.75;100.00;80615.59;4994797;28;19971;-66
2023/02/08 01:52:16;;;;;;;;;;;;;;;-142.75;100.00;80607.69;4984087;28;19953;-66
2023/02/08 01:54:45;;;;;;;;;;;;;;;-142.75;100.00;80637.25;4994506;28;19917;-66
2023/02/08 01:57:10;;;;;;;;;;;;;;;-142.75;100.00;80635.28;4994785;28;19945;-66
2023/02/08 01:59:45;;;;;;;;;;;;;;;-142.75;100.00;80633.31;4994634;28;20401;-67
2023/02/08 02:02:13;;;;;;;;;;;;;;;-142.75;100.00;80613.63;4994697;28;19988;-66
2023/02/08 02:04:38;;;;;;;;;;;;;;;-142.75;100.00;80615.59;4992941;28;19921;-66
2023/02/08 02:07:04;;;;;;;;;;;;;;;-142.75;100.00;80613.63;4994624;28;19914;-66
2023/02/08 02:09:36;;;;;;;;;;;;;;;-142.75;100.00;80617.56;4994537;28;19940;-66
2023/02/08 02:12:02;;;;;;;;;;;;;;;-142.75;100.00;80635.28;4994102;28;19913;-66
2023/02/08 02:14:27;;;;;;;;;;;;;;;-142.75;100.00;80643.16;4993028;28;19917;-66
2023/02/08 02:16:53;;;;;;;;;;;;;;;-142.75;100.00;80639.22;4993286;28;20300;-66
2023/02/08 02:19:30;;;;;;;;;;;;;;;-142.75;100.00;80641.19;4993074;28;19921;-66
2023/02/08 02:21:55;;;;;;;;;;;;;;;-142.75;100.00;80643.16;4992699;28;20309;-66
2023/02/08 02:24:41;;;;;;;;;;;;;;;-142.75;100.00;80643.16;4994066;28;19920;-66
2023/02/08 02:27:24;;;;;;;;;;;;;;;-142.75;100.00;80635.28;4993858;28;19949;-67
2023/02/08 02:30:08;;;;;;;;;;;;;;;-142.75;100.00;80641.19;4994041;28;20001;-66
2023/02/08 02:32:33;;;;;;;;;;;;;;;-142.75;100.00;80635.28;4992741;28;19913;-66
2023/02/08 02:35:13;;;;;;;;;;;;;;;-142.75;100.00;80625.44;4993750;28;20460;-66
2023/02/08 02:37:41;;;;;;;;;;;;;;;-142.75;100.00;80621.50;4994008;28;19966;-66
2023/02/08 02:40:17;;;;;;;;;;;;;;;-142.75;100.00;80595.88;4992433;28;19914;-65
2023/02/08 02:45:36;;;;;;;;;;;;;;;-142.75;100.00;80588.00;4993940;28;19921;-66
2023/02/08 02:48:09;;;;;;;;;;;;;;;-142.75;100.00;80576.19;4992546;28;19920;-66
2023/02/08 02:50:46;;;;;;;;;;;;;;;-142.75;100.00;80564.34;4993758;28;20408;-65
2023/02/08 02:53:11;;;;;;;;;;;;;;;-142.75;100.00;80544.66;4993697;28;19914;-66
2023/02/08 02:55:41;;;;;;;;;;;;;;;-142.75;100.00;80530.84;4993252;28;19924;-67
2023/02/08 02:58:09;;;;;;;;;;;;;;;-142.75;100.00;80552.53;4993682;28;19914;-64
2023/02/08 03:00:34;;;;;;;;;;;;;;;-142.75;100.00;80554.50;4993358;28;19933;-66
2023/02/08 03:03:00;;;;;;;;;;;;;;;-142.75;100.00;80588.00;4993540;28;20496;-66
2023/02/08 03:05:26;;;;;;;;;;;;;;;-142.75;100.00;80611.63;4991964;28;20377;-66
2023/02/08 03:07:51;;;;;;;;;;;;;;;-142.75;100.00;80647.09;4993527;28;20343;-66
2023/02/08 03:10:26;;;;;;;;;;;;;;;-142.75;100.00;80645.13;4993154;28;20016;-66
2023/02/08 03:13:02;;;;;;;;;;;;;;;-142.75;100.00;80647.09;4992025;28;19910;-66
2023/02/08 03:15:48;;;;;;;;;;;;;;;-142.75;100.00;80643.16;4987684;28;20386;-66
2023/02/08 03:18:32;;;;;;;;;;;;;;;-142.75;100.00;80641.19;4985386;28;20435;-66
2023/02/08 03:21:03;;;;;;;;;;;;;;;-142.75;100.00;80633.31;4993039;28;19922;-66
2023/02/08 03:23:55;;;;;;;;;;;;;;;-142.75;100.00;80623.47;4991894;28;20294;-66
2023/02/08 03:26:26;;;;;;;;;;;;;;;-142.75;100.00;80653.03;4989570;28;20619;-66
2023/02/08 03:29:03;;;;;;;;;;;;;;;-142.75;100.00;80643.16;4992919;28;20345;-67
2023/02/08 03:31:43;;;;;;;;;;;;;;;-142.75;100.00;80635.28;4991643;28;19949;-66
2023/02/08 03:34:20;;;;;;;;;;;;;;;-142.75;100.00;80647.09;4991447;28;19913;-66
2023/02/08 03:36:52;;;;;;;;;;;;;;;-142.75;100.00;80647.09;4992855;28;19921;-67
2023/02/08 03:39:20;;;;;;;;;;;;;;;-142.75;100.00;80631.34;4992672;28;19921;-67
2023/02/08 03:41:47;;;;;;;;;;;;;;;-142.75;100.00;80619.53;4992739;28;20347;-66
2023/02/08 03:44:15;;;;;;;;;;;;;;;-142.75;100.00;80582.09;4992610;28;19920;-66
2023/02/08 03:46:43;;;;;;;;;;;;;;;-142.75;100.00;80601.78;4993139;28;19945;-66
2023/02/08 03:49:13;;;;;;;;;;;;;;;-142.75;100.00;80615.59;4992655;28;19920;-66
2023/02/08 03:51:39;;;;;;;;;;;;;;;-142.75;100.00;80613.63;4992498;28;19913;-66
2023/02/08 03:54:11;;;;;;;;;;;;;;;-142.75;100.00;80595.88;4992356;28;19920;-66
2023/02/08 03:56:42;;;;;;;;;;;;;;;-142.75;100.00;80564.34;4992453;28;20008;-69
2023/02/08 03:59:10;;;;;;;;;;;;;;;-142.75;100.00;80542.69;4992426;28;19980;-67
2023/02/08 04:01:40;;;;;;;;;;;;;;;-142.75;100.00;80538.72;4992265;28;19925;-66
2023/02/08 04:04:06;;;;;;;;;;;;;;;-142.75;100.00;80526.91;4992301;28;19997;-66
2023/02/08 04:06:31;;;;;;;;;;;;;;;-142.75;100.00;80548.59;4990857;28;20004;-65
2023/02/08 04:08:57;;;;;;;;;;;;;;;-142.75;100.00;80580.13;4991083;28;19914;-68
2023/02/08 04:11:22;;;;;;;;;;;;;;;-142.75;100.00;80588.00;4990909;28;19914;-67
2023/02/08 04:13:47;;;;;;;;;;;;;;;-142.75;100.00;80586.03;4990984;28;19917;-66
2023/02/08 04:16:12;;;;;;;;;;;;;;;-142.75;100.00;80595.88;4992071;28;19952;-66
2023/02/08 04:18:38;;;;;;;;;;;;;;;-142.75;100.00;80580.13;4992119;28;19914;-66
2023/02/08 04:21:03;;;;;;;;;;;;;;;-142.75;100.00;80558.44;4991968;28;20305;-67
2023/02/08 04:23:28;;;;;;;;;;;;;;;-142.75;100.00;80560.41;4992027;28;20300;-67
2023/02/08 04:25:54;;;;;;;;;;;;;;;-142.75;100.00;80562.38;4991854;28;20389;-67
2023/02/08 04:28:19;;;;;;;;;;;;;;;-142.75;100.00;80560.41;4991996;28;19913;-67
2023/02/08 04:30:44;;;;;;;;;;;;;;;-142.75;100.00;80566.31;4991824;28;19913;-66
2023/02/08 04:33:11;;;;;;;;;;;;;;;-142.75;100.00;80584.06;4991967;28;19971;-66
2023/02/08 04:35:37;;;;;;;;;;;;;;;-142.75;100.00;80611.63;4991176;28;20000;-67
2023/02/08 04:38:02;;;;;;;;;;;;;;;-142.75;100.00;80617.56;4990416;28;19964;-66
2023/02/08 04:40:27;;;;;;;;;;;;;;;-142.75;100.00;80623.47;4991572;28;19965;-67
2023/02/08 04:42:52;;;;;;;;;;;;;;;-142.75;100.00;80621.50;4990545;28;20004;-66
2023/02/08 04:45:17;;;;;;;;;;;;;;;-142.75;100.00;80619.53;4991475;28;19935;-67
2023/02/08 04:47:43;;;;;;;;;;;;;;;-142.75;100.00;80605.72;4973684;28;19914;-67
2023/02/08 04:50:08;;;;;;;;;;;;;;;-142.75;100.00;80613.63;4989785;28;19926;-66
2023/02/08 04:52:33;;;;;;;;;;;;;;;-142.75;100.00;80603.75;4991712;28;19976;-67
2023/02/08 04:54:58;;;;;;;;;;;;;;;-142.75;100.00;80605.72;4990267;28;19914;-65
2023/02/08 04:57:23;;;;;;;;;;;;;;;-142.75;100.00;80603.75;4991730;28;19917;-66
2023/02/08 04:59:49;;;;;;;;;;;;;;;-142.75;100.00;80593.91;4991663;28;19960;-67
2023/02/08 05:02:14;;;;;;;;;;;;;;;-142.75;100.00;80599.81;4991556;28;19918;-68
2023/02/08 05:04:39;;;;;;;;;;;;;;;-142.75;100.00;80607.69;4991417;28;19913;-67
2023/02/08 05:07:04;;;;;;;;;;;;;;;-142.75;100.00;80621.50;4991513;28;20017;-65
2023/02/08 05:09:30;;;;;;;;;;;;;;;-142.75;100.00;80621.50;4991610;28;19913;-66
2023/02/08 05:11:55;;;;;;;;;;;;;;;-142.75;100.00;80601.78;4991489;28;19914;-66
2023/02/08 05:14:20;;;;;;;;;;;;;;;-142.75;100.00;80607.69;4991126;28;20341;-66
2023/02/08 05:16:45;;;;;;;;;;;;;;;-142.75;100.00;80603.75;4989084;28;20425;-66
2023/02/08 05:19:10;;;;;;;;;;;;;;;-142.75;100.00;80595.88;4991458;28;20004;-68
2023/02/08 05:21:36;;;;;;;;;;;;;;;-142.75;100.00;80603.75;4990118;28;19976;-66
2023/02/08 05:24:01;;;;;;;;;;;;;;;-142.75;100.00;80607.69;4991333;28;20404;-67
2023/02/08 05:26:26;;;;;;;;;;;;;;;-142.75;100.00;80625.44;4991328;28;19920;-65
2023/02/08 05:28:51;;;;;;;;;;;;;;;-142.75;100.00;80635.28;4991512;28;19922;-68
2023/02/08 05:31:18;;;;;;;;;;;;;;;-142.75;100.00;80635.28;4989835;28;19979;-69
2023/02/08 05:33:44;;;;;;;;;;;;;;;-142.75;100.00;80637.25;4976980;28;19943;-68
2023/02/08 05:36:09;;;;;;;;;;;;;;;-142.75;100.00;80649.06;4974825;28;20702;-66
2023/02/08 05:38:34;;;;;;;;;;;;;;;-142.75;100.00;80637.25;4988475;28;19914;-66
2023/02/08 05:41:00;;;;;;;;;;;;;;;-142.75;100.00;80639.22;4989749;28;19947;-67
2023/02/08 05:43:25;;;;;;;;;;;;;;;-142.75;100.00;80639.22;4988804;28;19913;-64
2023/02/08 05:45:50;;;;;;;;;;;;;;;-142.75;100.00;80647.09;4991099;28;19913;-66
2023/02/08 05:48:15;;;;;;;;;;;;;;;-142.75;100.00;80653.03;4993478;28;20403;-66
2023/02/08 05:50:41;;;;;;;;;;;;;;;-142.75;100.00;80662.88;4993528;28;20378;-68
2023/02/08 05:53:07;;;;;;;;;;;;;;;-142.75;100.00;80668.78;4994745;28;19945;-66
2023/02/08 05:55:32;;;;;;;;;;;;;;;-142.75;100.00;80662.88;4994444;28;19968;-67
2023/02/08 05:57:57;;;;;;;;;;;;;;;-142.75;100.00;80668.78;4994718;28;19933;-68
2023/02/08 06:00:22;;;;;;;;;;;;;;;-142.75;100.00;80656.97;4994587;28;19921;-67
2023/02/08 06:02:48;;;;;;;;;;;;;;;-142.75;100.00;80645.13;4993461;28;20345;-66
2023/02/08 06:05:13;;;;;;;;;;;;;;;-142.75;100.00;80655.00;4994278;28;19914;-65
2023/02/08 06:07:38;;;;;;;;;;;;;;;-142.75;100.00;80655.00;4994619;28;19917;-67
2023/02/08 06:10:04;;;;;;;;;;;;;;;-142.75;100.00;80660.91;4994445;28;19913;-67
2023/02/08 06:12:29;;;;;;;;;;;;;;;-142.75;100.00;80653.03;4994435;28;19913;-66
2023/02/08 06:14:54;;;;;;;;;;;;;;;-142.75;100.00;80662.88;4980788;28;20004;-68
2023/02/08 06:17:19;;;;;;;;;;;;;;;-142.75;100.00;80658.94;4992964;28;19914;-66
2023/02/08 06:19:44;;;;;;;;;;;;;;;-142.75;100.00;80653.03;4994255;28;19920;-67
2023/02/08 06:22:10;;;;;;;;;;;;;;;-142.75;100.00;80676.66;4994170;28;19921;-66
2023/02/08 06:24:35;;;;;;;;;;;;;;;-142.75;100.00;80672.72;4993984;28;19914;-66
2023/02/08 06:27:00;;;;;;;;;;;;;;;-142.75;100.00;80672.72;4994066;28;19914;-67
2023/02/08 06:29:25;;;;;;;;;;;;;;;-142.75;100.00;80682.56;4994142;28;19914;-67
2023/02/08 06:31:50;;;;;;;;;;;;;;;-142.75;100.00;80670.75;4994090;28;20004;-66
2023/02/08 06:34:16;;;;;;;;;;;;;;;-142.75;100.00;80674.69;4993793;28;20000;-66
2023/02/08 06:36:41;;;;;;;;;;;;;;;-142.75;100.00;80704.25;4989858;28;19917;-66
2023/02/08 06:39:06;;;;;;;;;;;;;;;-142.75;100.00;80702.28;4974338;28;19995;-67
2023/02/08 06:41:31;;;;;;;;;;;;;;;-142.75;100.00;80700.31;4974416;28;19917;-67
2023/02/08 06:43:58;;;;;;;;;;;;;;;-142.75;100.00;80694.41;4974330;28;19929;-67
2023/02/08 06:46:23;;;;;;;;;;;;;;;-142.75;100.00;80698.34;4973125;28;19921;-66
2023/02/08 06:48:48;;;;;;;;;;;;;;;-142.75;100.00;80684.53;4974405;28;20309;-67
2023/02/08 06:51:14;;;;;;;;;;;;;;;-142.75;100.00;80686.53;4972961;28;19914;-67
2023/02/08 06:53:39;;;;;;;;;;;;;;;-142.75;100.00;80664.84;4974209;28;19921;-67
2023/02/08 06:56:04;;;;;;;;;;;;;;;-142.75;100.00;80662.88;4973966;28;19914;-65
2023/02/08 06:58:29;;;;;;;;;;;;;;;-142.75;100.00;80680.59;4973958;28;19914;-67
2023/02/08 07:00:54;;;;;;;;;;;;;;;-142.75;100.00;80686.53;4972357;28;20029;-68
2023/02/08 07:03:21;;;;;;;;;;;;;;;-142.75;100.00;80702.28;4974161;28;19914;-66
2023/02/08 07:05:46;;;;;;;;;;;;;;;-142.75;100.00;80700.31;4973829;28;20004;-67
2023/02/08 07:08:11;;;;;;;;;;;;;;;-142.75;100.00;80706.22;4991960;28;19914;-67
2023/02/08 07:10:38;;;;;;;;;;;;;;;-142.75;100.00;80710.16;4987393;28;19918;-64
2023/02/08 07:13:03;;;;;;;;;;;;;;;-142.75;100.00;80725.94;4984439;28;19914;-66
2023/02/08 07:15:29;;;;;;;;;;;;;;;-142.75;100.00;80727.91;4984727;28;19976;-67
2023/02/08 07:17:55;;;;;;;;;;;;;;;-142.75;100.00;80722.00;4983880;28;19968;-66
2023/02/08 07:20:20;;;;;;;;;;;;;;;-142.75;100.00;80714.09;4985627;28;19922;-67
2023/02/08 07:22:45;;;;;;;;;;;;;;;-142.75;100.00;80718.03;4983977;28;19920;-66
2023/02/08 07:25:11;;;;;;;;;;;;;;;-142.75;100.00;80702.28;4983321;28;20416;-67
2023/02/08 07:27:36;;;;;;;;;;;;;;;-142.75;100.00;80668.78;4982722;28;19925;-66
2023/02/08 07:30:01;;;;;;;;;;;;;;;-142.75;100.00;80645.13;4981247;28;19918;-66
2023/02/08 07:32:26;;;;;;;;;;;;;;;-142.75;100.00;80637.25;4988983;28;19960;-66
2023/02/08 07:34:53;;;;;;;;;;;;;;;-142.75;100.00;80651.06;4992573;28;19913;-67
2023/02/08 07:37:18;;;;;;;;;;;;;;;-142.75;100.00;80651.06;4992972;28;19920;-66
2023/02/08 07:39:43;;;;;;;;;;;;;;;-142.75;100.00;80627.41;4991358;28;19914;-67
2023/02/08 07:42:09;;;;;;;;;;;;;;;-142.75;100.00;80617.56;4992612;28;19961;-66
2023/02/08 07:44:35;;;;;;;;;;;;;;;-142.75;100.00;80591.94;4992459;28;19913;-65
2023/02/08 07:47:01;;;;;;;;;;;;;;;-142.75;100.00;80580.13;4991445;28;19967;-67
2023/02/08 07:49:26;;;;;;;;;;;;;;;-142.75;100.00;80576.19;4991208;28;20312;-67
2023/02/08 07:51:51;;;;;;;;;;;;;;;-142.75;100.00;80554.50;4991314;28;19913;-67
2023/02/08 07:54:16;;;;;;;;;;;;;;;-142.75;100.00;80538.72;4992537;28;19925;-67
2023/02/08 07:56:41;;;;;;;;;;;;;;;-142.75;100.00;80522.97;4992355;28;19921;-67
2023/02/08 07:59:07;;;;;;;;;;;;;;;-142.75;100.00;80471.75;4991702;28;19917;-68
2023/02/08 08:01:32;;;;;;;;;;;;;;;-142.75;100.00;80416.56;4992362;28;19918;-69
2023/02/08 08:03:57;;;;;;;;;;;;;;;-142.75;100.00;80396.88;4992275;28;19948;-66
2023/02/08 08:06:22;;;;;;;;;;;;;;;-142.75;100.00;80377.16;4990875;28;19925;-66
2023/02/08 08:08:48;;;;;;;;;;;;;;;-142.75;100.00;80353.53;4992367;28;20404;-66
2023/02/08 08:11:14;;;;;;;;;;;;;;;-142.75;100.00;80341.69;4990076;28;19921;-64
2023/02/08 08:13:39;;;;;;;;;;;;;;;-142.75;100.00;80335.78;4992148;28;19914;-66
2023/02/08 08:16:04;;;;;;;;;;;;;;;-142.75;100.00;80355.50;4992068;28;20427;-65
2023/02/08 08:18:30;;;;;;;;;;;;;;;-142.75;100.00;80339.72;4992107;28;19914;-66
2023/02/08 08:20:55;;;;;;;;;;;;;;;-142.75;100.00;80351.56;4985911;28;19922;-66
2023/02/08 08:23:20;;;;;;;;;;;;;;;-142.75;100.00;80327.91;4973652;28;19913;-66
2023/02/08 08:25:45;;;;;;;;;;;;;;;-142.75;100.00;80323.97;4988472;28;20401;-66
2023/02/08 08:28:11;;;;;;;;;;;;;;;-142.75;100.00;80302.28;4973019;28;20281;-66
2023/02/08 08:30:36;;;;;;;;;;;;;;;-142.75;100.00;80272.75;4972750;28;20294;-66
2023/02/08 08:33:01;;;;;;;;;;;;;;;-142.75;100.00;80270.75;4973145;28;20006;-66
2023/02/08 08:35:26;;;;;;;;;;;;;;;-142.75;100.00;80258.94;4972478;28;19937;-66
2023/02/08 08:37:52;;;;;;;;;;;;;;;-142.75;100.00;80249.09;4983142;28;19920;-65
2023/02/08 08:40:17;;;;;;;;;;;;;;;-142.75;100.00;80225.44;4984129;28;20030;-67
2023/02/08 08:42:42;;;;;;;;;;;;;;;-142.75;100.00;80233.31;4981815;28;19913;-65
2023/02/08 08:45:08;;;;;;;;;;;;;;;-142.75;100.00;80189.97;4983528;28;19917;-66
2023/02/08 08:47:33;;;;;;;;;;;;;;;-142.75;100.00;80087.53;4990754;28;19956;-67
2023/02/08 08:49:58;;;;;;;;;;;;;;;-142.75;100.00;79955.53;4991410;28;20347;-66
2023/02/08 08:52:24;;;;;;;;;;;;;;;-142.75;100.00;80028.44;4991379;28;19976;-66
2023/02/08 08:54:49;;;;;;;;;;;;;;;-142.75;100.00;80034.34;4991375;28;19914;-67
2023/02/08 08:57:14;;;;;;;;;;;;;;;-142.75;100.00;80000.84;4991619;28;20004;-66
2023/02/08 08:59:40;;;;;;;;;;;;;;;-142.75;100.00;79987.06;4991765;28;19914;-65
2023/02/08 09:02:05;;;;;;;;;;;;;;;-142.75;100.00;79992.97;4991576;28;19917;-64
2023/02/08 09:04:30;;;;;;;;;;;;;;;-142.75;100.00;79996.91;4990132;28;20293;-66
2023/02/08 09:06:56;;;;;;;;;;;;;;;-142.75;100.00;79991.00;4990429;28;19921;-65
2023/02/08 09:09:21;;;;;;;;;;;;;;;-142.75;100.00;80006.75;4990212;28;20521;-64
2023/02/08 09:11:47;;;;;;;;;;;;;;;-142.75;100.00;80028.44;4991177;28;19914;-65
2023/02/08 09:14:12;;;;;;;;;;;;;;;-142.75;100.00;80004.78;4991229;28;19922;-67
2023/02/08 09:16:40;;;;;;;;;;;;;;;-142.75;100.00;80010.69;4990087;28;19917;-64
2023/02/08 09:19:06;;;;;;;;;;;;;;;-142.75;100.00;79983.13;4991417;28;20000;-66
2023/02/08 09:21:31;;;;;;;;;;;;;;;-142.75;100.00;79912.19;4990046;28;19918;-66
2023/02/08 09:23:57;;;;;;;;;;;;;;;-142.75;100.00;79914.16;4994733;28;19914;-68
2023/02/08 09:26:24;;;;;;;;;;;;;;;-142.75;100.00;79855.06;4995270;28;19913;-66
2023/02/08 09:28:49;;;;;;;;;;;;;;;-142.75;100.00;79882.63;4995277;28;20278;-68
2023/02/08 09:31:19;;;;;;;;;;;;;;;-142.75;100.00;79795.94;4995259;28;19920;-66
2023/02/08 09:33:44;;;;;;;;;;;;;;;-142.75;100.00;79754.59;4993765;28;19913;-66
2023/02/08 09:36:09;;;;;;;;;;;;;;;-142.75;98.71;79711.25;4995164;28;19914;-66
2023/02/08 09:38:35;;;;;;;;;;;;;;;-142.75;97.16;79711.25;4993840;28;19921;-66
2023/02/08 09:41:09;;;;;;;;;;;;;;;-142.75;93.34;79681.69;4994904;28;19952;-67
2023/02/08 09:43:34;;;;;;;;;;;;;;;-142.75;91.00;79660.03;4993613;28;19964;-66
2023/02/08 09:46:15;;;;;;;;;;;;;;;-142.75;92.96;79628.50;4994032;28;19953;-66
2023/02/08 09:48:42;;;;;;;;;;;;;;;-142.75;89.59;79624.56;4994880;28;20269;-65
2023/02/08 09:51:10;;;;;;;;;;;;;;;-142.75;89.08;79553.63;4994929;28;20452;-65
2023/02/08 09:53:36;;;;;;;;;;;;;;;-142.75;89.21;79551.69;4994694;28;19985;-66
2023/02/08 09:56:05;;;;;;;;;;;;;;;-142.75;89.29;79512.28;4993392;28;19921;-66
2023/02/08 09:58:44;;;;;;;;;;;;;;;-142.75;88.01;79531.97;4993546;28;19913;-66
2023/02/08 10:01:21;;;;;;;;;;;;;;;-142.75;86.93;79468.94;4994550;28;20408;-65
2023/02/08 10:03:48;;;;;;;;;;;;;;;-142.75;83.11;79476.81;4994611;28;19913;-66
2023/02/08 10:06:15;;;;;;;;;;;;;;;-142.75;83.45;79482.72;4994578;28;19944;-63
2023/02/08 10:08:41;;;;;;;;;;;;;;;-142.75;82.03;79457.13;4994635;28;19913;-65
2023/02/08 10:11:25;;;;;;;;;;;;;;;-142.75;81.19;79415.75;4994373;28;19979;-63
2023/02/08 10:13:53;;;;;;;;;;;;;;;-142.75;81.95;79441.34;4994300;28;20282;-66
2023/02/08 10:16:36;;;;;;;;;;;;;;;-142.75;80.04;79417.72;4994366;28;19944;-65
2023/02/08 10:19:20;;;;;;;;;;;;;;;-142.75;80.02;79370.44;4994405;28;20374;-65
2023/02/08 10:21:51;;;;;;;;;;;;;;;-142.75;78.54;79323.16;4994159;28;20433;-65
2023/02/08 10:24:24;;;;;;;;;;;;;;;-142.75;78.28;79317.25;4994161;28;19920;-66
2023/02/08 10:27:02;;;;;;;;;;;;;;;-142.75;78.33;79307.41;4974670;28;19914;-65
2023/02/08 10:29:34;;;;;;;;;;;;;;;-142.75;75.48;79281.81;4974743;28;19924;-65
2023/02/08 10:32:04;;;;;;;;;;;;;;;-142.75;73.58;79275.88;4991732;28;19918;-66
2023/02/08 10:34:33;;;;;;;;;;;;;;;-142.75;75.62;79289.69;4992881;28;19914;-65
2023/02/08 10:37:00;;;;;;;;;;;;;;;-142.75;72.21;79189.22;4993907;28;19968;-66
2023/02/08 10:39:31;;;;;;;;;;;;;;;-142.75;72.33;79224.69;4994018;28;20364;-67
2023/02/08 10:41:56;;;;;;;;;;;;;;;-142.75;72.36;79191.19;4993806;28;19917;-66
2023/02/08 10:44:27;;;;;;;;;;;;;;;-142.75;73.16;79197.09;4993671;28;19921;-68
2023/02/08 10:47:09;;;;;;;;;;;;;;;-142.75;73.25;79177.41;4993910;28;20343;-66
2023/02/08 10:49:42;;;;;;;;;;;;;;;-142.75;70.94;79173.47;4993928;28;19921;-63
2023/02/08 10:52:07;;;;;;;;;;;;;;;-142.75;70.92;79183.31;4992369;28;19933;-65
2023/02/08 10:54:33;;;;;;;;;;;;;;;-142.75;69.28;79153.75;4993394;28;20294;-66
2023/02/08 10:57:03;;;;;;;;;;;;;;;-142.75;68.87;79108.47;4993518;28;19925;-66
2023/02/08 10:59:35;;;;;;;;;;;;;;;-142.75;68.75;79149.81;4992252;28;19915;-66
2023/02/08 11:02:00;;;;;;;;;;;;;;;-142.75;70.46;79287.72;4993329;28;19924;-66
2023/02/08 11:04:26;;;;;;;;;;;;;;;-142.75;71.17;79126.19;4988446;28;19914;-66
2023/02/08 11:06:53;;;;;;;;;;;;;;;-142.75;69.18;79110.44;4990336;28;19920;-66
2023/02/08 11:09:23;;;;;;;;;;;;;;;-142.75;69.50;79149.81;4993415;28;19960;-66
2023/02/08 11:11:51;;;;;;;;;;;;;;;-142.75;68.30;79065.13;4992040;28;20371;-67
2023/02/08 11:14:18;;;;;;;;;;;;;;;-142.75;63.99;78992.25;4993212;28;19917;-67
2023/02/08 11:16:53;;;;;;;;;;;;;;;-142.75;59.78;78935.13;4991923;28;20004;-67
2023/02/08 11:19:26;;;;;;;;;;;;;;;-142.75;53.70;78858.31;4993202;28;19925;-67
2023/02/08 11:21:51;;;;;;;;;;;;;;;-142.75;52.97;78968.63;4992811;28;19922;-67
2023/02/08 11:24:25;;;;;;;;;;;;;;;-142.75;51.57;78887.84;4991537;28;20309;-65
2023/02/08 11:26:51;;;;;;;;;;;;;;;-142.75;47.83;78850.44;4991876;28;19913;-67
2023/02/08 11:29:18;;;;;;;;;;;;;;;-142.75;45.41;78929.22;4991802;28;19964;-67
2023/02/08 11:32:01;;;;;;;;;;;;;;;-142.75;45.47;78941.03;4991580;28;19917;-67
2023/02/08 11:34:26;;;;;;;;;;;;;;;-142.75;44.63;78948.91;4992687;28;20376;-67
2023/02/08 11:36:51;;;;;;;;;;;;;;;-142.75;47.04;78919.38;4991618;28;19913;-67
2023/02/08 11:39:23;;;;;;;;;;;;;;;-142.75;46.44;78978.47;4992729;28;19940;-68
2023/02/08 11:41:49;;;;;;;;;;;;;;;-142.75;45.05;78937.09;4992766;28;19976;-68
2023/02/08 11:44:20;;;;;;;;;;;;;;;-142.75;44.55;78887.84;4992725;28;20321;-69
2023/02/08 11:46:47;;;;;;;;;;;;;;;-142.75;41.72;78964.69;4992529;28;19914;-68
2023/02/08 11:49:28;;;;;;;;;;;;;;;-142.75;40.38;79039.53;4983487;28;19914;-65
2023/02/08 11:51:54;;;;;;;;;;;;;;;-142.75;47.90;78970.59;4983249;28;20392;-65
2023/02/08 11:54:33;;;;;;;;;;;;;;;-142.75;45.75;78952.84;4980974;28;19914;-66
2023/02/08 11:57:10;;;;;;;;;;;;;;;-142.75;41.48;78937.09;4982284;28;20267;-65
2023/02/08 11:59:35;;;;;;;;;;;;;;;-142.75;43.02;78897.72;4981581;28;19917;-66
2023/02/08 12:02:17;;;;;;;;;;;;;;;-142.75;41.46;78921.34;4982404;28;19925;-65
2023/02/08 12:04:42;;;;;;;;;;;;;;;-142.75;43.56;78907.56;4982217;28;20448;-66
2023/02/08 12:07:20;;;;;;;;;;;;;;;-142.75;43.44;78889.81;4983856;28;20004;-64
2023/02/08 12:10:14;;;;;;;;;;;;;;;-142.75;43.25;78822.88;4992303;28;19936;-66
2023/02/08 12:12:59;;;;;;;;;;;;;;;-142.75;40.67;78803.16;4987196;28;20384;-66
2023/02/08 12:15:27;;;;;;;;;;;;;;;-142.75;40.58;78874.06;4992011;28;20060;-66
2023/02/08 12:18:01;;;;;;;;;;;;;;;-142.75;41.60;78828.78;4990963;28;19914;-66
2023/02/08 12:20:42;;;;;;;;;;;;;;;-142.75;39.70;78838.63;4990751;28;19979;-66
2023/02/08 12:23:23;;;;;;;;;;;;;;;-142.75;58.22;78878.00;4992167;28;19918;-67
2023/02/08 12:26:06;;;;;;;;;;;;;;;-142.75;45.38;78903.63;4988672;28;20361;-69